Time;durP1;ratioP1;P1;durP2;ratioP2;P2;SDS_P1;SDS_P2;PMS_P1;PMS_P2;Temp;Humidity;BMP_temperature;BMP_pressure;BME280_temperature;BME280_humidity;BME280_pressure;Samples;Min_cycle;Max_cycle;Signal;HPM_P1;HPM_P2
2022/01/26 00:06:44;;;;;;;29.30;26.40;;;;;;;3.92;78.94;101502.29;108471;1276;22003;-79
2022/01/26 00:09:28;;;;;;;;;;;;;;;;;;;;;
2022/01/26 00:12:23;;;;;;;;;;;;;;;;;;;;;
2022/01/26 00:15:09;;;;;;;29.90;26.30;;;;;;;3.90;78.69;101502.71;109066;1267;23053;-79
2022/01/26 00:18:00;;;;;;;;;;;;;;;;;;;;;
2022/01/26 00:20:51;;;;;;;27.30;24.70;;;;;;;3.90;78.76;101492.61;109240;1266;21986;-79
2022/01/26 00:24:06;;;;;;;27.30;24.60;;;;;;;3.91;78.93;101493.25;110021;1260;21974;-78
2022/01/26 00:27:19;;;;;;;;;;;;;;;;;;;;;
2022/01/26 00:40:14;;;;;;;;;;;;;;;;;;;;;
2022/01/26 00:43:03;;;;;;;;;;;;;;;;;;;;;
2022/01/26 00:46:03;;;;;;;28.20;25.30;;;;;;;3.95;78.97;101480.42;109965;1260;21980;-83
2022/01/26 00:49:20;;;;;;;27.20;24.60;;;;;;;3.98;78.91;101480.40;110121;1260;21989;-81
2022/01/26 00:52:51;;;;;;;25.90;23.40;;;;;;;3.98;78.92;101480.95;110098;1260;23047;-81
2022/01/26 00:55:48;;;;;;;25.70;23.10;;;;;;;3.99;79.01;101475.65;110643;1257;21979;-83
2022/01/26 00:58:56;;;;;;;;;;;;;;;;;;;;;
2022/01/26 01:01:39;;;;;;;23.50;21.10;;;;;;;3.99;78.87;101471.45;110178;1260;22005;-83
2022/01/26 01:04:48;;;;;;;22.60;20.20;;;;;;;3.99;78.77;101468.52;110309;1260;23679;-83
2022/01/26 01:07:23;;;;;;;21.70;19.50;;;;;;;3.98;78.73;101467.72;110237;1263;22033;-83
2022/01/26 01:10:21;;;;;;;;;;;;;;;;;;;;;
2022/01/26 01:13:42;;;;;;;17.30;15.60;;;;;;;3.96;78.84;101463.67;110446;1259;23796;-82
2022/01/26 01:16:24;;;;;;;17.10;15.30;;;;;;;3.96;78.88;101462.24;110186;1257;23034;-81
2022/01/26 01:19:18;;;;;;;;;;;;;;;;;;;;;
2022/01/26 01:32:24;;;;;;;;;;;;;;;;;;;;;
2022/01/26 01:35:57;;;;;;;;;;;;;;;;;;;;;
2022/01/26 01:39:50;;;;;;;14.20;12.70;;;;;;;3.95;78.81;101454.97;109683;1267;22032;-84
2022/01/26 01:43:45;;;;;;;;;;;;;;;;;;;;;
2022/01/26 01:46:56;;;;;;;20.30;17.70;;;;;;;3.95;78.76;101448.73;109690;1269;21986;-85
2022/01/26 01:50:41;;;;;;;;;;;;;;;;;;;;;
2022/01/26 01:53:56;;;;;;;;;;;;;;;;;;;;;
2022/01/26 01:57:22;;;;;;;;;;;;;;;;;;;;;
2022/01/26 02:00:56;;;;;;;;;;;;;;;;;;;;;
2022/01/26 02:04:09;;;;;;;19.40;17.50;;;;;;;4.13;78.57;101434.69;109400;1270;23700;-81
2022/01/26 02:07:19;;;;;;;18.40;16.50;;;;;;;4.09;78.37;101434.42;108828;1279;21988;-82
2022/01/26 02:10:17;;;;;;;22.30;16.30;;;;;;;4.08;78.30;101436.36;108967;1273;22001;-82
2022/01/26 02:13:09;;;;;;;17.50;15.70;;;;;;;4.11;78.37;101432.57;108848;1273;21998;-82
2022/01/26 02:20:21;;;;;;;19.60;17.70;;;;;;;4.05;78.32;101431.41;109034;1273;22018;-83
2022/01/26 02:49:42;;;;;;;19.20;16.40;;;;;;;3.94;78.76;101422.32;109414;1267;22019;-83
2022/01/26 02:56:07;;;;;;;20.90;17.30;;;;;;;3.93;78.81;101420.44;109355;1263;22044;-82
2022/01/26 03:02:20;;;;;;;;;;;;;;;;;;;;;
2022/01/26 03:05:32;;;;;;;22.60;18.20;;;;;;;3.97;78.87;101422.47;109491;1267;21991;-83
2022/01/26 03:08:27;;;;;;;;;;;;;;;;;;;;;
2022/01/26 03:11:12;;;;;;;20.80;18.00;;;;;;;4.02;79.07;101419.84;109503;1266;22012;-83
2022/01/26 03:14:28;;;;;;;20.10;15.80;;;;;;;4.07;79.07;101418.53;109386;1267;22989;-84
2022/01/26 03:21:25;;;;;;;13.40;12.00;;;;;;;3.94;78.70;101426.67;108963;1276;22449;-83
2022/01/26 03:34:01;;;;;;;9.90;6.20;;;;;;;3.80;78.75;101425.66;109481;1264;21949;-84
2022/01/26 03:36:54;;;;;;;6.60;5.50;;;;;;;3.74;78.59;101423.73;109176;1267;22061;-84
2022/01/26 03:40:03;;;;;;;8.30;7.20;;;;;;;3.70;78.59;101429.08;109725;1264;21977;-84
2022/01/26 03:42:48;;;;;;;9.70;8.30;;;;;;;3.70;78.72;101428.04;109108;1267;24310;-83
2022/01/26 03:45:56;;;;;;;11.70;9.40;;;;;;;3.72;78.81;101422.81;109154;1267;21976;-84
2022/01/26 03:49:05;;;;;;;;;;;;;;;;;;;;;
2022/01/26 03:52:05;;;;;;;11.40;8.60;;;;;;;3.73;78.56;101424.02;108970;1273;21961;-83
2022/01/26 03:55:15;;;;;;;8.90;7.80;;;;;;;3.72;78.44;101428.41;108779;1270;23083;-83
2022/01/26 03:58:13;;;;;;;;;;;;;;;;;;;;;
2022/01/26 04:01:24;;;;;;;;;;;;;;;;;;;;;
2022/01/26 04:04:23;;;;;;;12.40;10.90;;;;;;;3.76;78.39;101424.63;109941;1261;23606;-83
2022/01/26 04:07:54;;;;;;;;;;;;;;;;;;;;;
2022/01/26 04:14:05;;;;;;;19.40;17.40;;;;;;;3.81;78.40;101421.59;109465;1269;23219;-84
2022/01/26 04:17:08;;;;;;;20.30;18.20;;;;;;;3.83;78.33;101423.55;109205;1267;22000;-85
2022/01/26 04:20:37;;;;;;;21.00;18.80;;;;;;;3.84;78.40;101422.59;109378;1267;23817;-82
2022/01/26 04:24:01;;;;;;;21.80;19.60;;;;;;;3.86;78.39;101421.09;109018;1267;23697;-82
2022/01/26 04:26:42;;;;;;;19.80;17.90;;;;;;;3.86;78.23;101418.11;109268;1267;23699;-82
2022/01/26 04:29:35;;;;;;;19.60;17.50;;;;;;;3.87;78.29;101419.11;109903;1259;23059;-82
2022/01/26 04:32:34;;;;;;;19.90;17.70;;;;;;;3.88;78.35;101414.33;109370;1266;22502;-83
2022/01/26 04:35:40;;;;;;;24.80;19.90;;;;;;;3.89;78.41;101419.98;109366;1266;23631;-84
2022/01/26 04:38:52;;;;;;;29.70;23.10;;;;;;;3.90;78.32;101420.67;109178;1270;22007;-82
2022/01/26 04:41:51;;;;;;;25.80;22.70;;;;;;;3.90;78.42;101419.10;109097;1270;22001;-83
2022/01/26 04:44:56;;;;;;;;;;;;;;;;;;;;;
2022/01/26 04:48:00;;;;;;;;;;;;;;;;;;;;;
2022/01/26 04:51:12;;;;;;;22.30;19.80;;;;;;;3.95;78.35;101411.80;109643;1261;23595;-82
2022/01/26 04:54:11;;;;;;;;;;;;;;;;;;;;;
2022/01/26 04:57:17;;;;;;;19.80;17.60;;;;;;;3.94;78.29;101408.90;109356;1266;21999;-82
2022/01/26 05:00:17;;;;;;;17.30;15.60;;;;;;;3.93;78.27;101410.52;109217;1267;23160;-81
2022/01/26 05:03:12;;;;;;;17.80;16.00;;;;;;;3.92;78.17;101406.41;109433;1261;23040;-82
2022/01/26 05:06:17;;;;;;;;;;;;;;;;;;;;;
2022/01/26 05:09:12;;;;;;;16.40;14.40;;;;;;;3.93;78.27;101400.39;109964;1260;23804;-82
2022/01/26 05:11:48;;;;;;;15.70;14.20;;;;;;;3.94;78.31;101399.84;109358;1261;23817;-81
2022/01/26 05:14:45;;;;;;;;;;;;;;;;;;;;;
2022/01/26 05:17:39;;;;;;;16.70;15.10;;;;;;;3.95;78.30;101399.38;110531;1256;23579;-82
2022/01/26 05:20:22;;;;;;;16.60;15.00;;;;;;;3.96;78.33;101396.52;110363;1256;22070;-82
2022/01/26 05:23:33;;;;;;;15.10;13.60;;;;;;;3.97;78.32;101396.13;110670;1255;23584;-82
2022/01/26 05:26:28;;;;;;;14.70;13.20;;;;;;;3.98;78.42;101394.66;109676;1261;22059;-84
2022/01/26 05:29:11;;;;;;;16.20;14.70;;;;;;;3.98;78.22;101390.30;109729;1258;22786;-83
2022/01/26 05:32:20;;;;;;;;;;;;;;;;;;;;;
2022/01/26 05:35:20;;;;;;;17.50;15.00;;;;;;;3.95;78.10;101379.55;110440;1257;23812;-83
2022/01/26 05:38:11;;;;;;;17.80;15.90;;;;;;;3.94;78.16;101372.98;110423;1256;22372;-83
2022/01/26 05:41:22;;;;;;;;;;;;;;;;;;;;;
2022/01/26 05:44:32;;;;;;;25.20;22.00;;;;;;;3.96;78.27;101370.25;110309;1256;23602;-82
2022/01/26 05:47:42;;;;;;;33.70;30.00;;;;;;;3.96;78.24;101369.34;109781;1263;21983;-82
2022/01/26 05:50:31;;;;;;;23.60;21.10;;;;;;;3.96;78.28;101366.72;109645;1264;21975;-82
2022/01/26 05:54:10;;;;;;;23.10;17.80;;;;;;;3.96;78.10;101366.92;109297;1268;22043;-82
2022/01/26 05:56:57;;;;;;;21.60;18.10;;;;;;;3.93;78.17;101367.61;109397;1267;22003;-82
2022/01/26 05:59:46;;;;;;;21.50;19.30;;;;;;;3.92;78.20;101369.96;109074;1270;22107;-81
2022/01/26 06:02:31;;;;;;;21.90;19.50;;;;;;;3.93;78.17;101377.26;109184;1268;22143;-82
2022/01/26 06:05:29;;;;;;;23.90;21.30;;;;;;;3.93;78.15;101380.21;109490;1263;22109;-82
2022/01/26 06:08:59;;;;;;;25.10;22.20;;;;;;;3.91;78.19;101377.14;109371;1267;21993;-82
2022/01/26 06:11:40;;;;;;;24.70;22.10;;;;;;;3.92;78.10;101378.34;109304;1264;23782;-82
2022/01/26 06:14:18;;;;;;;21.80;19.50;;;;;;;3.95;78.12;101375.20;109330;1264;23071;-81
2022/01/26 06:17:03;;;;;;;;;;;;;;;;;;;;;
2022/01/26 06:19:51;;;;;;;18.90;16.30;;;;;;;3.97;78.04;101368.75;110689;1256;21972;-83
2022/01/26 06:22:34;;;;;;;;;;;;;;;;;;;;;
2022/01/26 06:25:21;;;;;;;;;;;;;;;3.98;77.96;101369.09;109429;1264;22433;-84
2022/01/26 06:28:12;;;;;;;20.20;18.00;;;;;;;3.90;78.16;101370.48;110156;1260;22050;-83
2022/01/26 06:31:03;;;;;;;21.40;17.70;;;;;;;3.89;78.17;101369.30;110073;1259;22086;-86
2022/01/26 06:33:46;;;;;;;20.60;18.60;;;;;;;3.92;78.34;101371.21;109997;1258;22104;-82
2022/01/26 06:36:43;;;;;;;22.00;19.70;;;;;;;3.94;78.31;101367.08;110080;1258;22103;-83
2022/01/26 06:39:25;;;;;;;23.50;19.80;;;;;;;3.94;78.29;101361.99;109608;1264;22042;-82
2022/01/26 06:42:17;;;;;;;23.70;21.00;;;;;;;3.95;78.32;101354.95;110424;1256;21976;-82
2022/01/26 06:45:17;;;;;;;23.20;20.40;;;;;;;3.96;78.37;101351.98;109941;1261;21997;-82
2022/01/26 06:48:37;;;;;;;22.40;19.90;;;;;;;3.97;78.45;101354.13;109460;1267;22027;-83
2022/01/26 06:51:30;;;;;;;24.80;20.80;;;;;;;3.96;78.54;101352.64;109415;1266;23006;-83
2022/01/26 06:54:32;;;;;;;;;;;;;;;;;;;;;
2022/01/26 06:57:22;;;;;;;25.00;22.30;;;;;;;3.99;78.57;101348.09;109421;1267;23029;-85
2022/01/26 07:00:09;;;;;;;;;;;;;;;;;;;;;
2022/01/26 07:03:50;;;;;;;28.10;23.30;;;;;;;3.97;78.55;101345.27;110065;1261;23052;-85
2022/01/26 07:07:06;;;;;;;27.10;24.20;;;;;;;3.96;78.83;101348.77;110478;1261;22007;-82
2022/01/26 07:09:54;;;;;;;26.30;23.30;;;;;;;3.99;79.05;101345.81;110274;1260;23011;-83
2022/01/26 07:12:43;;;;;;;24.50;22.00;;;;;;;4.02;79.08;101346.11;110307;1260;21995;-84
2022/01/26 07:21:36;;;;;;;24.40;21.90;;;;;;;4.05;79.14;101338.95;110239;1260;23836;-82
2022/01/26 07:24:21;;;;;;;25.20;22.80;;;;;;;4.08;79.24;101340.52;109451;1265;22416;-82
2022/01/26 07:27:27;;;;;;;25.50;21.70;;;;;;;4.09;79.23;101343.45;109716;1263;22027;-83
2022/01/26 07:30:35;;;;;;;27.00;24.40;;;;;;;4.08;79.24;101342.77;109450;1268;23819;-86
2022/01/26 07:42:08;;;;;;;20.60;17.90;;;;;;;4.10;79.54;101342.29;111084;1258;21999;-86
2022/01/26 07:46:10;;;;;;;;;;;;;;;;;;;;;
2022/01/26 07:53:48;;;;;;;;;;;;;;;;;;;;;
2022/01/26 07:57:07;;;;;;;;;;;;;;;;;;;;;
2022/01/26 08:00:09;;;;;;;18.50;16.50;;;;;;;4.27;79.69;101344.17;110644;1260;22031;-83
2022/01/26 08:02:56;;;;;;;16.80;15.10;;;;;;;4.30;79.55;101344.82;109895;1264;22024;-84
2022/01/26 08:06:18;;;;;;;18.30;16.40;;;;;;;4.32;79.52;101348.13;109593;1269;22486;-86
2022/01/26 08:09:29;;;;;;;17.70;16.00;;;;;;;4.33;79.51;101347.56;109533;1267;23706;-83
2022/01/26 08:12:08;;;;;;;17.90;16.10;;;;;;;4.36;79.56;101347.86;109202;1270;22032;-80
2022/01/26 08:14:55;;;;;;;17.90;16.20;;;;;;;4.39;79.60;101350.98;109117;1270;22226;-79
2022/01/26 08:17:32;;;;;;;18.00;16.20;;;;;;;4.43;79.66;101349.69;108970;1270;21981;-79
2022/01/26 08:20:10;;;;;;;22.90;16.60;;;;;;;4.46;79.65;101348.64;109219;1266;22026;-79
2022/01/26 08:23:32;;;;;;;17.60;14.80;;;;;;;4.45;79.41;101348.98;109335;1258;22960;-80
2022/01/26 08:26:26;;;;;;;19.60;16.40;;;;;;;4.45;79.58;101343.09;109731;1260;23705;-80
2022/01/26 08:29:25;;;;;;;18.40;16.60;;;;;;;4.46;79.57;101344.61;109827;1260;23703;-79
2022/01/26 08:32:23;;;;;;;18.00;16.20;;;;;;;4.46;79.53;101346.83;110400;1258;23068;-81
2022/01/26 08:35:32;;;;;;;20.10;18.10;;;;;;;4.47;79.48;101346.63;109164;1270;23026;-78
2022/01/26 08:38:17;;;;;;;20.60;18.40;;;;;;;4.46;79.40;101346.66;108780;1270;21985;-79
2022/01/26 08:41:15;;;;;;;;;;;;;;;;;;;;;
2022/01/26 08:44:17;;;;;;;17.90;15.90;;;;;;;4.41;79.40;101349.79;108723;1276;22149;-79
2022/01/26 08:47:09;;;;;;;17.70;16.00;;;;;;;4.39;79.30;101352.73;108542;1276;22007;-79
2022/01/26 08:49:43;;;;;;;16.50;14.80;;;;;;;4.38;79.43;101350.23;108677;1276;22033;-79
2022/01/26 08:52:16;;;;;;;16.90;15.30;;;;;;;4.39;79.55;101349.98;108582;1276;24434;-78
2022/01/26 08:54:46;;;;;;;16.70;15.10;;;;;;;4.40;79.52;101351.30;108803;1273;23166;-80
2022/01/26 08:57:17;;;;;;;17.40;15.60;;;;;;;4.41;79.49;101352.40;108675;1273;21993;-79
2022/01/26 08:59:47;;;;;;;17.50;15.80;;;;;;;4.43;79.55;101352.15;108896;1271;24980;-80
2022/01/26 09:02:16;;;;;;;15.10;13.70;;;;;;;4.43;79.53;101354.71;108881;1270;22030;-79
2022/01/26 09:04:46;;;;;;;17.30;15.70;;;;;;;4.44;79.56;101353.60;108828;1273;22028;-80
2022/01/26 09:07:20;;;;;;;15.40;13.80;;;;;;;4.42;79.40;101353.01;109272;1267;22837;-80
2022/01/26 09:09:55;;;;;;;17.90;15.90;;;;;;;4.44;79.57;101353.28;109325;1267;23850;-80
2022/01/26 09:12:33;;;;;;;16.80;14.90;;;;;;;4.45;79.51;101356.35;109438;1264;23596;-80
2022/01/26 09:15:11;;;;;;;15.50;14.00;;;;;;;4.44;79.46;101357.24;109302;1266;23800;-80
2022/01/26 09:17:42;;;;;;;16.40;14.60;;;;;;;4.45;79.47;101360.20;109246;1264;22432;-80
2022/01/26 09:20:15;;;;;;;15.80;14.20;;;;;;;4.45;79.45;101360.86;109208;1267;21952;-80
2022/01/26 09:22:44;;;;;;;16.90;15.10;;;;;;;4.46;79.43;101360.62;109229;1267;23940;-80
2022/01/26 09:25:13;;;;;;;16.20;14.50;;;;;;;4.47;79.38;101363.02;109427;1265;23474;-80
2022/01/26 09:27:43;;;;;;;18.20;16.10;;;;;;;4.48;79.36;101364.89;109217;1267;22008;-81
2022/01/26 09:30:12;;;;;;;13.90;12.60;;;;;;;4.50;79.45;101362.67;109089;1270;22055;-80
2022/01/26 09:32:42;;;;;;;15.50;13.90;;;;;;;4.50;79.40;101358.94;108782;1273;23728;-79
2022/01/26 09:35:13;;;;;;;16.80;15.00;;;;;;;4.50;79.29;101359.83;108713;1273;21987;-80
2022/01/26 09:37:43;;;;;;;16.30;14.70;;;;;;;4.49;79.10;101356.80;108748;1276;23648;-80
2022/01/26 09:40:18;;;;;;;16.10;14.50;;;;;;;4.46;79.12;101355.04;108724;1273;22072;-80
2022/01/26 09:43:19;;;;;;;15.80;14.30;;;;;;;4.44;79.15;101353.60;108779;1273;22696;-80
2022/01/26 09:46:05;;;;;;;;;;;;;;;;;;;;;
2022/01/26 09:48:44;;;;;;;14.00;12.70;;;;;;;4.44;79.21;101348.23;108534;1276;23108;-81
2022/01/26 09:51:31;;;;;;;14.90;13.40;;;;;;;4.44;79.21;101348.17;108612;1275;22066;-80
2022/01/26 09:54:15;;;;;;;14.00;12.60;;;;;;;4.43;79.26;101346.70;108807;1270;22404;-80
2022/01/26 09:57:09;;;;;;;16.10;14.50;;;;;;;4.42;79.21;101344.70;109070;1268;22272;-80
2022/01/26 09:59:49;;;;;;;13.90;12.60;;;;;;;4.40;79.16;101345.34;109136;1267;22144;-80
2022/01/26 10:02:41;;;;;;;15.00;13.60;;;;;;;4.41;79.22;101348.40;109093;1268;21985;-80
2022/01/26 10:05:47;;;;;;;14.50;13.10;;;;;;;4.43;79.22;101346.55;109193;1267;22034;-83
2022/01/26 10:18:18;;;;;;;15.90;14.40;;;;;;;4.41;79.38;101336.93;109112;1267;22083;-81
2022/01/26 10:20:58;;;;;;;13.60;11.90;;;;;;;4.46;79.47;101339.15;109052;1267;22339;-81
2022/01/26 10:23:41;;;;;;;15.60;14.00;;;;;;;4.46;79.17;101338.46;108970;1273;21907;-81
2022/01/26 10:26:31;;;;;;;15.70;14.10;;;;;;;4.47;79.23;101332.63;108853;1270;22024;-81
2022/01/26 10:29:23;;;;;;;14.80;13.20;;;;;;;4.52;79.37;101334.27;109160;1264;21991;-80
2022/01/26 10:32:23;;;;;;;;;;;;;;;;;;;;;
2022/01/26 10:35:19;;;;;;;13.80;12.40;;;;;;;4.53;79.12;101331.89;109236;1267;22091;-82
2022/01/26 10:38:00;;;;;;;12.30;11.10;;;;;;;4.56;79.20;101331.49;108910;1273;21996;-81
2022/01/26 10:40:42;;;;;;;13.80;12.40;;;;;;;4.58;79.05;101331.55;108682;1276;22006;-81
2022/01/26 10:43:50;;;;;;;16.00;13.40;;;;;;;4.59;79.10;101329.95;108921;1271;21992;-80
2022/01/26 10:46:40;;;;;;;13.70;12.40;;;;;;;4.60;79.04;101329.67;108788;1273;23713;-82
2022/01/26 10:52:39;;;;;;;11.90;10.70;;;;;;;4.63;78.84;101330.14;108676;1276;22845;-82
2022/01/26 10:55:19;;;;;;;12.40;11.20;;;;;;;4.62;78.68;101326.37;108677;1273;23769;-82
2022/01/26 10:57:57;;;;;;;13.80;11.40;;;;;;;4.64;78.69;101323.84;108795;1270;22034;-80
2022/01/26 11:00:45;;;;;;;10.90;9.80;;;;;;;4.64;78.60;101323.11;108832;1273;22002;-80
2022/01/26 11:03:26;;;;;;;13.00;11.60;;;;;;;4.66;78.70;101317.95;108963;1270;22020;-79
2022/01/26 11:06:29;;;;;;;12.80;9.60;;;;;;;4.66;78.57;101317.39;109031;1270;24326;-80
2022/01/26 11:09:15;;;;;;;10.60;9.60;;;;;;;4.66;78.55;101319.48;108725;1276;23618;-80
2022/01/26 11:12:11;;;;;;;12.00;9.70;;;;;;;4.67;78.49;101317.20;108755;1270;22014;-81
2022/01/26 11:14:51;;;;;;;15.40;12.70;;;;;;;4.67;78.59;101313.50;108835;1270;22004;-81
2022/01/26 11:17:43;;;;;;;12.70;11.30;;;;;;;4.68;78.53;101305.17;108776;1270;22049;-81
2022/01/26 11:20:35;;;;;;;16.10;14.30;;;;;;;4.70;78.56;101303.29;108995;1272;23635;-80
2022/01/26 11:23:06;;;;;;;14.00;12.60;;;;;;;4.75;78.67;101303.57;109081;1270;22411;-81
2022/01/26 11:25:53;;;;;;;11.60;10.40;;;;;;;4.79;78.56;101305.50;109178;1265;21985;-81
2022/01/26 11:28:46;;;;;;;9.80;8.80;;;;;;;4.81;78.43;101303.29;109467;1260;22220;-81
2022/01/26 11:31:35;;;;;;;14.10;12.20;;;;;;;4.83;78.29;101300.50;110010;1260;21997;-81
2022/01/26 11:34:19;;;;;;;10.90;9.10;;;;;;;4.85;78.26;101299.68;109647;1262;22146;-80
2022/01/26 11:37:02;;;;;;;10.30;9.30;;;;;;;4.85;78.17;101302.64;110050;1262;21980;-82
2022/01/26 11:46:19;;;;;;;13.50;12.20;;;;;;;4.80;77.96;101303.36;110091;1262;21998;-80
2022/01/26 11:49:11;;;;;;;15.70;14.10;;;;;;;4.80;77.82;101301.45;109617;1262;22531;-80
2022/01/26 11:51:49;;;;;;;13.50;12.20;;;;;;;4.76;77.56;101301.03;109566;1263;21978;-81
2022/01/26 11:54:48;;;;;;;17.60;15.90;;;;;;;4.68;77.35;101299.44;109864;1262;22092;-80
2022/01/26 11:57:51;;;;;;;19.50;17.60;;;;;;;4.60;77.55;101301.91;109760;1261;23724;-80
2022/01/26 12:00:48;;;;;;;19.30;17.50;;;;;;;4.56;77.67;101299.77;110276;1259;21987;-80
2022/01/26 12:03:48;;;;;;;17.50;15.70;;;;;;;4.55;77.65;101302.66;110166;1259;23722;-80
2022/01/26 12:06:38;;;;;;;20.60;18.60;;;;;;;4.50;77.64;101300.73;109742;1262;24308;-81
2022/01/26 12:09:18;;;;;;;19.30;17.50;;;;;;;4.48;77.74;101300.64;109644;1262;21988;-80
2022/01/26 12:12:26;;;;;;;20.10;17.30;;;;;;;4.47;77.85;101293.42;109874;1261;22017;-82
2022/01/26 12:15:14;;;;;;;20.00;16.80;;;;;;;4.43;77.87;101292.63;109851;1261;21978;-81
2022/01/26 12:37:36;;;;;;;28.50;25.60;;;;;;;4.34;78.29;101293.66;109237;1267;23793;-81
2022/01/26 12:45:58;;;;;;;26.00;23.20;;;;;;;4.26;78.19;101295.55;109198;1270;22731;-80
2022/01/26 12:49:07;;;;;;;23.80;21.50;;;;;;;4.25;78.42;101295.77;109002;1270;22060;-81
2022/01/26 12:52:28;;;;;;;30.10;27.00;;;;;;;4.24;78.44;101296.19;109272;1267;22440;-81
2022/01/26 12:55:09;;;;;;;;;;;;;;;;;;;;;
2022/01/26 12:58:06;;;;;;;25.50;22.80;;;;;;;4.25;78.48;101293.55;109277;1263;24402;-81
2022/01/26 13:01:18;;;;;;;;;;;;;;;4.27;78.57;101291.29;109798;1261;22100;-81
2022/01/26 13:03:48;;;;;;;28.80;23.60;;;;;;;4.24;78.71;101289.57;109827;1261;23616;-81
2022/01/26 13:06:27;;;;;;;26.00;23.40;;;;;;;4.25;78.73;101285.98;109525;1262;23599;-80
2022/01/26 13:09:03;;;;;;;27.00;24.10;;;;;;;4.27;78.52;101286.58;109844;1261;22003;-81
2022/01/26 13:11:36;;;;;;;24.50;22.00;;;;;;;4.29;78.53;101287.35;109784;1262;23633;-81
2022/01/26 13:14:17;;;;;;;21.60;19.40;;;;;;;4.26;78.33;101280.18;109518;1264;22356;-81
2022/01/26 13:17:13;;;;;;;25.20;22.20;;;;;;;4.25;78.39;101280.11;109895;1262;22177;-81
2022/01/26 13:23:14;;;;;;;25.50;22.90;;;;;;;4.21;78.34;101275.83;109477;1265;23614;-81
2022/01/26 13:26:11;;;;;;;28.80;25.30;;;;;;;4.20;78.38;101272.20;109463;1267;22002;-82
2022/01/26 13:29:01;;;;;;;29.10;26.10;;;;;;;4.23;78.43;101273.44;109514;1267;23055;-81
2022/01/26 13:32:24;;;;;;;31.70;28.30;;;;;;;4.21;78.55;101265.55;109468;1265;21996;-81
2022/01/26 13:35:15;;;;;;;24.20;21.60;;;;;;;4.23;78.71;101268.18;109441;1267;21992;-80
2022/01/26 13:53:19;;;;;;;24.30;20.40;;;;;;;4.23;78.20;101263.64;110284;1258;21972;-81
2022/01/26 13:56:04;;;;;;;20.20;18.00;;;;;;;4.22;78.09;101262.52;110363;1257;22040;-82
2022/01/26 14:01:25;;;;;;;19.00;17.10;;;;;;;4.21;78.09;101259.45;109586;1263;21986;-81
2022/01/26 14:04:04;;;;;;;20.10;17.70;;;;;;;4.17;77.84;101257.42;109638;1264;23842;-82
2022/01/26 14:06:38;;;;;;;18.40;16.70;;;;;;;4.17;77.96;101254.67;109487;1264;22028;-82
2022/01/26 14:09:09;;;;;;;16.20;12.40;;;;;;;4.16;77.83;101255.60;109183;1270;22013;-82
2022/01/26 14:11:39;;;;;;;15.70;13.60;;;;;;;4.14;77.83;101252.23;109204;1269;23874;-82
2022/01/26 14:14:12;;;;;;;18.40;16.50;;;;;;;4.16;77.99;101251.23;108637;1273;253838;-82
2022/01/26 14:16:55;;;;;;;18.00;15.10;;;;;;;4.17;77.93;101249.77;108955;1267;22043;-82
2022/01/26 14:19:39;;;;;;;17.10;14.60;;;;;;;4.16;77.85;101251.02;109384;1267;22003;-83
2022/01/26 14:27:51;;;;;;;12.60;10.00;;;;;;;4.16;77.58;101242.04;109414;1267;23782;-81
2022/01/26 14:30:32;;;;;;;11.40;10.20;;;;;;;4.13;77.51;101243.39;109152;1267;21993;-81
2022/01/26 14:53:01;;;;;;;12.40;9.50;;;;;;;4.01;76.95;101245.31;109363;1264;24316;-81
2022/01/26 15:09:42;;;;;;;13.20;11.40;;;;;;;3.96;76.43;101228.39;109642;1263;21990;-81
2022/01/26 15:48:51;;;;;;;15.90;14.10;;;;;;;3.77;75.32;101197.19;110462;1258;21987;-79
2022/01/26 15:57:41;;;;;;;22.10;17.40;;;;;;;3.70;75.17;101198.88;109528;1264;23067;-80
2022/01/26 16:17:10;;;;;;;18.40;16.40;;;;;;;3.55;75.10;101214.76;109244;1267;24360;-80
2022/01/26 17:48:35;;;;;;;16.90;13.40;;;;;;;3.14;73.00;101196.71;109438;1267;22327;-80
2022/01/26 18:51:37;;;;;;;19.80;14.70;;;;;;;2.86;74.43;101135.86;108548;1276;21999;-82
2022/01/26 18:54:12;;;;;;;17.10;14.10;;;;;;;2.81;74.51;101140.30;108903;1273;23717;-82
2022/01/26 18:56:42;;;;;;;18.70;14.60;;;;;;;2.81;74.62;101138.25;109516;1270;21991;-82
2022/01/26 18:59:17;;;;;;;18.00;14.30;;;;;;;2.83;74.67;101138.77;109507;1270;22017;-83
2022/01/26 19:01:48;;;;;;;16.10;13.10;;;;;;;2.85;74.60;101143.76;109305;1270;22015;-82
2022/01/26 19:04:39;;;;;;;13.60;12.20;;;;;;;2.84;74.59;101147.48;109519;1270;21996;-82
2022/01/26 19:07:24;;;;;;;16.50;12.70;;;;;;;2.81;74.57;101155.64;109409;1273;22215;-83
2022/01/26 19:09:58;;;;;;;19.20;16.20;;;;;;;2.81;74.66;101157.05;109317;1273;23060;-84
2022/01/26 19:12:43;;;;;;;;;;;;;;;;;;;;;
2022/01/26 19:15:25;;;;;;;19.90;17.00;;;;;;;2.88;74.62;101154.88;109457;1273;21991;-84
2022/01/26 19:20:44;;;;;;;21.30;17.60;;;;;;;2.90;74.63;101145.36;109049;1275;22018;-83
2022/01/26 19:26:02;;;;;;;21.20;15.80;;;;;;;2.84;74.49;101130.04;109355;1272;23615;-86
2022/01/26 19:28:41;;;;;;;18.30;14.80;;;;;;;2.80;74.44;101133.43;109302;1273;23670;-83
2022/01/26 19:50:54;;;;;;;10.80;8.30;;;;;;;2.84;74.27;101136.33;108767;1279;22014;-82
2022/01/26 19:53:27;;;;;;;12.30;9.50;;;;;;;2.81;74.00;101135.80;108569;1279;22016;-82
2022/01/26 19:56:03;;;;;;;11.20;9.80;;;;;;;2.77;74.03;101137.05;108987;1276;22007;-82
2022/01/26 19:58:35;;;;;;;12.20;10.90;;;;;;;2.77;74.06;101136.76;109186;1273;22049;-83
2022/01/26 20:01:07;;;;;;;12.00;10.50;;;;;;;2.76;74.00;101142.95;109212;1270;22091;-82
2022/01/26 20:03:40;;;;;;;12.40;10.80;;;;;;;2.72;73.89;101141.29;109261;1270;21994;-82
2022/01/26 20:06:12;;;;;;;13.90;12.40;;;;;;;2.69;73.81;101142.52;109637;1264;21988;-82
2022/01/26 20:08:56;;;;;;;13.30;11.90;;;;;;;2.66;73.81;101146.69;109621;1264;22426;-82
2022/01/26 20:11:38;;;;;;;12.40;11.00;;;;;;;2.66;73.76;101153.35;109725;1264;23598;-82
2022/01/26 20:14:21;;;;;;;15.90;13.30;;;;;;;2.65;73.78;101150.59;109875;1261;23597;-82
2022/01/26 20:17:12;;;;;;;14.40;12.50;;;;;;;2.65;73.73;101141.92;109913;1260;22967;-82
2022/01/26 20:19:42;;;;;;;14.20;12.70;;;;;;;2.62;73.70;101141.77;110666;1258;21983;-83
2022/01/26 20:22:12;;;;;;;17.10;13.90;;;;;;;2.62;73.73;101136.02;110385;1258;21973;-82
2022/01/26 20:24:42;;;;;;;17.10;14.60;;;;;;;2.62;73.64;101127.64;109730;1264;22007;-82
2022/01/26 20:27:17;;;;;;;19.10;15.80;;;;;;;2.61;73.42;101122.16;109748;1264;21993;-82
2022/01/26 20:29:59;;;;;;;19.80;15.10;;;;;;;2.58;73.44;101120.77;109508;1267;22039;-82
2022/01/26 20:32:33;;;;;;;22.00;17.10;;;;;;;2.56;73.37;101108.22;109774;1264;23594;-82
2022/01/26 20:35:06;;;;;;;23.40;18.80;;;;;;;2.55;73.44;101089.10;109881;1266;23694;-81
2022/01/26 20:37:38;;;;;;;21.70;17.40;;;;;;;2.56;73.40;101084.94;109618;1267;21967;-82
2022/01/26 20:40:16;;;;;;;21.70;16.50;;;;;;;2.53;73.22;101091.00;109524;1267;22038;-81
2022/01/26 20:42:48;;;;;;;22.60;17.80;;;;;;;2.49;73.16;101093.00;109910;1260;22473;-81
2022/01/26 20:45:23;;;;;;;18.20;15.00;;;;;;;2.46;73.19;101090.44;110164;1260;22000;-82
2022/01/26 20:47:58;;;;;;;21.40;16.30;;;;;;;2.44;73.25;101094.72;109787;1258;22034;-81
2022/01/26 20:50:36;;;;;;;22.20;16.50;;;;;;;2.42;73.34;101100.44;110030;1261;23722;-82
2022/01/26 20:53:12;;;;;;;18.20;14.50;;;;;;;2.40;73.27;101111.49;109809;1259;22036;-82
2022/01/26 20:55:43;;;;;;;21.50;16.60;;;;;;;2.38;73.21;101113.17;110147;1260;22434;-81
2022/01/26 20:58:13;;;;;;;;;;;;;;;2.36;73.19;101117.78;109590;1266;23703;-80
2022/01/26 21:01:05;;;;;;;28.40;17.60;;;;;;;2.28;73.35;101113.77;109676;1264;22766;-81
2022/01/26 21:03:36;;;;;;;21.50;15.30;;;;;;;2.27;73.41;101112.80;109123;1267;22513;-80
2022/01/26 21:06:06;;;;;;;22.70;17.80;;;;;;;2.29;73.52;101118.58;108843;1273;22088;-81
2022/01/26 21:08:38;;;;;;;24.50;16.50;;;;;;;2.32;73.57;101112.46;108851;1273;22775;-79
2022/01/26 21:11:08;;;;;;;24.80;18.60;;;;;;;2.30;73.34;101102.54;108734;1273;21996;-82
2022/01/26 21:13:40;;;;;;;24.20;17.10;;;;;;;2.25;73.32;101108.44;109081;1270;22945;-80
2022/01/26 21:16:12;;;;;;;26.60;18.70;;;;;;;2.22;73.30;101108.80;108983;1270;21995;-80
2022/01/26 21:18:42;;;;;;;22.70;15.70;;;;;;;2.20;73.35;101102.84;108827;1273;23357;-81